sensor_id;sensor_type;location;lat;lon;timestamp;temperature;humidity
47576;DHT22;33304;52.456;13.328;2022-11-20T00:01:30;0.70;99.90
47576;DHT22;33304;52.456;13.328;2022-11-20T00:03:57;0.80;99.90
47576;DHT22;33304;52.456;13.328;2022-11-20T00:06:25;0.70;99.90
47576;DHT22;33304;52.456;13.328;2022-11-20T00:08:54;0.70;99.90
47576;DHT22;33304;52.456;13.328;2022-11-20T00:11:23;0.80;99.90
47576;DHT22;33304;52.456;13.328;2022-11-20T00:13:54;0.80;99.90
47576;DHT22;33304;52.456;13.328;2022-11-20T00:16:24;0.70;99.90
47576;DHT22;33304;52.456;13.328;2022-11-20T00:18:53;0.80;99.90
47576;DHT22;33304;52.456;13.328;2022-11-20T00:21:22;0.80;99.90
47576;DHT22;33304;52.456;13.328;2022-11-20T00:23:50;0.70;99.90
47576;DHT22;33304;52.456;13.328;2022-11-20T00:26:19;0.60;99.90
47576;DHT22;33304;52.456;13.328;2022-11-20T00:28:49;0.70;99.90
47576;DHT22;33304;52.456;13.328;2022-11-20T00:31:19;0.80;99.90
47576;DHT22;33304;52.456;13.328;2022-11-20T00:33:46;0.80;99.90
47576;DHT22;33304;52.456;13.328;2022-11-20T00:36:15;0.80;99.90
47576;DHT22;33304;52.456;13.328;2022-11-20T00:38:42;0.90;99.90
47576;DHT22;33304;52.456;13.328;2022-11-20T00:41:12;0.90;99.90
47576;DHT22;33304;52.456;13.328;2022-11-20T00:43:39;0.80;98.30
47576;DHT22;33304;52.456;13.328;2022-11-20T00:46:13;0.80;99.10
47576;DHT22;33304;52.456;13.328;2022-11-20T00:48:42;0.90;98.40
47576;DHT22;33304;52.456;13.328;2022-11-20T00:51:11;0.70;97.50
47576;DHT22;33304;52.456;13.328;2022-11-20T00:53:38;0.80;98.30
47576;DHT22;33304;52.456;13.328;2022-11-20T00:56:07;0.90;99.50
47576;DHT22;33304;52.456;13.328;2022-11-20T00:58:37;0.90;97.80
47576;DHT22;33304;52.456;13.328;2022-11-20T01:01:06;0.80;97.80
47576;DHT22;33304;52.456;13.328;2022-11-20T01:03:35;0.90;98.60
47576;DHT22;33304;52.456;13.328;2022-11-20T01:06:07;0.80;98.30
47576;DHT22;33304;52.456;13.328;2022-11-20T01:08:36;0.80;99.50
47576;DHT22;33304;52.456;13.328;2022-11-20T01:11:05;0.70;98.90
47576;DHT22;33304;52.456;13.328;2022-11-20T01:13:33;0.80;99.90
47576;DHT22;33304;52.456;13.328;2022-11-20T01:16:09;0.80;99.10
47576;DHT22;33304;52.456;13.328;2022-11-20T01:18:37;0.80;97.90
47576;DHT22;33304;52.456;13.328;2022-11-20T01:21:07;0.80;96.90
47576;DHT22;33304;52.456;13.328;2022-11-20T01:23:35;0.60;95.50
47576;DHT22;33304;52.456;13.328;2022-11-20T01:26:06;0.70;98.30
47576;DHT22;33304;52.456;13.328;2022-11-20T01:28:33;0.80;97.70
47576;DHT22;33304;52.456;13.328;2022-11-20T01:31:01;0.70;95.00
47576;DHT22;33304;52.456;13.328;2022-11-20T01:33:28;0.80;94.80
47576;DHT22;33304;52.456;13.328;2022-11-20T01:36:03;0.70;94.00
47576;DHT22;33304;52.456;13.328;2022-11-20T01:38:33;0.50;95.90
47576;DHT22;33304;52.456;13.328;2022-11-20T01:41:00;0.60;98.90
47576;DHT22;33304;52.456;13.328;2022-11-20T01:43:28;0.70;98.30
47576;DHT22;33304;52.456;13.328;2022-11-20T01:46:03;0.80;97.00
47576;DHT22;33304;52.456;13.328;2022-11-20T01:48:35;0.70;97.70
47576;DHT22;33304;52.456;13.328;2022-11-20T01:51:04;0.80;96.40
47576;DHT22;33304;52.456;13.328;2022-11-20T01:53:35;0.80;94.10
47576;DHT22;33304;52.456;13.328;2022-11-20T01:56:06;0.60;91.20
47576;DHT22;33304;52.456;13.328;2022-11-20T01:58:40;0.30;93.00
47576;DHT22;33304;52.456;13.328;2022-11-20T02:01:09;0.20;96.10
47576;DHT22;33304;52.456;13.328;2022-11-20T02:03:36;0.20;98.90
47576;DHT22;33304;52.456;13.328;2022-11-20T02:06:06;0.10;99.10
47576;DHT22;33304;52.456;13.328;2022-11-20T02:08:37;0.10;99.90
47576;DHT22;33304;52.456;13.328;2022-11-20T02:11:05;0.10;99.90
47576;DHT22;33304;52.456;13.328;2022-11-20T02:13:33;0.20;99.90
47576;DHT22;33304;52.456;13.328;2022-11-20T02:16:14;0.20;99.90
47576;DHT22;33304;52.456;13.328;2022-11-20T02:18:42;0.40;99.90
47576;DHT22;33304;52.456;13.328;2022-11-20T02:21:16;0.30;99.90
47576;DHT22;33304;52.456;13.328;2022-11-20T02:24:02;0.30;99.90
47576;DHT22;33304;52.456;13.328;2022-11-20T02:26:31;0.20;99.90
47576;DHT22;33304;52.456;13.328;2022-11-20T02:29:01;0.20;99.90
47576;DHT22;33304;52.456;13.328;2022-11-20T02:31:28;0.20;99.90
47576;DHT22;33304;52.456;13.328;2022-11-20T02:33:56;0.20;99.90
47576;DHT22;33304;52.456;13.328;2022-11-20T02:36:24;0.10;99.90
47576;DHT22;33304;52.456;13.328;2022-11-20T02:38:54;0.00;99.90
47576;DHT22;33304;52.456;13.328;2022-11-20T02:41:22;0.00;99.90
47576;DHT22;33304;52.456;13.328;2022-11-20T02:43:56;0.00;99.90
47576;DHT22;33304;52.456;13.328;2022-11-20T02:46:23;0.10;99.90
47576;DHT22;33304;52.456;13.328;2022-11-20T02:48:51;0.00;99.90
47576;DHT22;33304;52.456;13.328;2022-11-20T02:51:18;0.00;99.90
47576;DHT22;33304;52.456;13.328;2022-11-20T02:53:45;0.00;99.90
47576;DHT22;33304;52.456;13.328;2022-11-20T02:56:13;0.00;99.90
47576;DHT22;33304;52.456;13.328;2022-11-20T02:58:40;0.00;99.90
47576;DHT22;33304;52.456;13.328;2022-11-20T03:01:08;0.00;99.90
47576;DHT22;33304;52.456;13.328;2022-11-20T03:03:35;0.30;99.90
47576;DHT22;33304;52.456;13.328;2022-11-20T03:06:02;0.20;97.70
47576;DHT22;33304;52.456;13.328;2022-11-20T03:08:29;0.30;94.30
47576;DHT22;33304;52.456;13.328;2022-11-20T03:10:57;0.30;91.70
47576;DHT22;33304;52.456;13.328;2022-11-20T03:13:29;0.30;90.70
47576;DHT22;33304;52.456;13.328;2022-11-20T03:15:56;0.30;90.40
47576;DHT22;33304;52.456;13.328;2022-11-20T03:18:24;0.20;88.80
47576;DHT22;33304;52.456;13.328;2022-11-20T03:20:57;0.20;88.80
47576;DHT22;33304;52.456;13.328;2022-11-20T03:23:24;0.20;88.10
47576;DHT22;33304;52.456;13.328;2022-11-20T03:25:51;0.20;86.50
47576;DHT22;33304;52.456;13.328;2022-11-20T03:28:18;0.30;84.90
47576;DHT22;33304;52.456;13.328;2022-11-20T03:30:47;0.30;85.80
47576;DHT22;33304;52.456;13.328;2022-11-20T03:33:14;0.30;86.30
47576;DHT22;33304;52.456;13.328;2022-11-20T03:35:41;0.30;85.50
47576;DHT22;33304;52.456;13.328;2022-11-20T03:38:08;0.20;86.50
47576;DHT22;33304;52.456;13.328;2022-11-20T03:40:35;0.10;86.30
47576;DHT22;33304;52.456;13.328;2022-11-20T03:43:02;0.20;86.80
47576;DHT22;33304;52.456;13.328;2022-11-20T03:45:29;0.20;83.20
47576;DHT22;33304;52.456;13.328;2022-11-20T03:47:58;0.00;83.70
47576;DHT22;33304;52.456;13.328;2022-11-20T03:50:25;0.10;84.20
47576;DHT22;33304;52.456;13.328;2022-11-20T03:52:52;0.10;85.30
47576;DHT22;33304;52.456;13.328;2022-11-20T03:55:19;0.00;86.20
47576;DHT22;33304;52.456;13.328;2022-11-20T03:57:46;0.10;90.70
47576;DHT22;33304;52.456;13.328;2022-11-20T04:00:14;0.10;89.40
47576;DHT22;33304;52.456;13.328;2022-11-20T04:02:41;0.10;90.70
47576;DHT22;33304;52.456;13.328;2022-11-20T04:05:09;0.10;88.70
47576;DHT22;33304;52.456;13.328;2022-11-20T04:07:37;0.00;88.60
47576;DHT22;33304;52.456;13.328;2022-11-20T04:10:05;0.00;90.60
47576;DHT22;33304;52.456;13.328;2022-11-20T04:12:32;0.10;89.50
47576;DHT22;33304;52.456;13.328;2022-11-20T04:15:00;0.10;88.70
47576;DHT22;33304;52.456;13.328;2022-11-20T04:17:27;0.20;88.80
47576;DHT22;33304;52.456;13.328;2022-11-20T04:19:54;0.30;86.70
47576;DHT22;33304;52.456;13.328;2022-11-20T04:22:23;0.30;84.60
47576;DHT22;33304;52.456;13.328;2022-11-20T04:24:50;0.00;83.40
47576;DHT22;33304;52.456;13.328;2022-11-20T04:27:17;-0.20;85.90
47576;DHT22;33304;52.456;13.328;2022-11-20T04:29:44;-0.30;91.00
47576;DHT22;33304;52.456;13.328;2022-11-20T04:32:11;-0.10;94.90
47576;DHT22;33304;52.456;13.328;2022-11-20T04:34:39;-0.10;94.30
47576;DHT22;33304;52.456;13.328;2022-11-20T04:37:06;-0.20;94.40
47576;DHT22;33304;52.456;13.328;2022-11-20T04:39:34;-0.20;94.00
47576;DHT22;33304;52.456;13.328;2022-11-20T04:42:01;-0.10;94.70
47576;DHT22;33304;52.456;13.328;2022-11-20T04:44:46;-0.10;93.70
47576;DHT22;33304;52.456;13.328;2022-11-20T04:47:13;-0.20;94.10
47576;DHT22;33304;52.456;13.328;2022-11-20T04:49:40;-0.30;94.90
47576;DHT22;33304;52.456;13.328;2022-11-20T04:52:07;-0.20;96.50
47576;DHT22;33304;52.456;13.328;2022-11-20T04:54:36;-0.20;97.90
47576;DHT22;33304;52.456;13.328;2022-11-20T04:57:03;-0.20;97.10
47576;DHT22;33304;52.456;13.328;2022-11-20T04:59:30;-0.20;97.90
47576;DHT22;33304;52.456;13.328;2022-11-20T05:01:57;-0.20;99.10
47576;DHT22;33304;52.456;13.328;2022-11-20T05:04:24;-0.10;99.60
47576;DHT22;33304;52.456;13.328;2022-11-20T05:06:51;0.00;99.90
47576;DHT22;33304;52.456;13.328;2022-11-20T05:09:18;0.10;98.40
47576;DHT22;33304;52.456;13.328;2022-11-20T05:11:47;0.10;95.50
47576;DHT22;33304;52.456;13.328;2022-11-20T05:14:14;0.00;93.70
47576;DHT22;33304;52.456;13.328;2022-11-20T05:16:41;0.20;95.30
47576;DHT22;33304;52.456;13.328;2022-11-20T05:19:08;0.30;94.30
47576;DHT22;33304;52.456;13.328;2022-11-20T05:21:36;0.20;93.50
47576;DHT22;33304;52.456;13.328;2022-11-20T05:24:03;0.20;90.10
47576;DHT22;33304;52.456;13.328;2022-11-20T05:26:30;0.30;89.90
47576;DHT22;33304;52.456;13.328;2022-11-20T05:28:58;0.30;87.90
47576;DHT22;33304;52.456;13.328;2022-11-20T05:31:25;0.30;88.90
47576;DHT22;33304;52.456;13.328;2022-11-20T05:33:53;0.30;88.90
47576;DHT22;33304;52.456;13.328;2022-11-20T05:36:20;0.40;90.20
47576;DHT22;33304;52.456;13.328;2022-11-20T05:38:47;0.30;88.90
47576;DHT22;33304;52.456;13.328;2022-11-20T05:41:16;0.30;89.00
47576;DHT22;33304;52.456;13.328;2022-11-20T05:43:44;0.40;89.00
47576;DHT22;33304;52.456;13.328;2022-11-20T05:46:16;0.30;88.90
47576;DHT22;33304;52.456;13.328;2022-11-20T05:48:44;0.10;90.60
47576;DHT22;33304;52.456;13.328;2022-11-20T05:51:14;0.20;92.80
47576;DHT22;33304;52.456;13.328;2022-11-20T05:53:41;0.10;92.40
47576;DHT22;33304;52.456;13.328;2022-11-20T05:56:10;0.20;95.20
47576;DHT22;33304;52.456;13.328;2022-11-20T05:58:38;0.20;92.00
47576;DHT22;33304;52.456;13.328;2022-11-20T06:01:06;0.10;92.10
47576;DHT22;33304;52.456;13.328;2022-11-20T06:03:36;0.00;93.20
47576;DHT22;33304;52.456;13.328;2022-11-20T06:06:05;0.10;93.90
47576;DHT22;33304;52.456;13.328;2022-11-20T06:08:32;0.10;93.80
47576;DHT22;33304;52.456;13.328;2022-11-20T06:11:03;0.00;94.50
47576;DHT22;33304;52.456;13.328;2022-11-20T06:13:31;0.00;95.70
47576;DHT22;33304;52.456;13.328;2022-11-20T06:15:58;0.00;95.40
47576;DHT22;33304;52.456;13.328;2022-11-20T06:18:26;0.00;95.90
47576;DHT22;33304;52.456;13.328;2022-11-20T06:21:04;0.20;96.00
47576;DHT22;33304;52.456;13.328;2022-11-20T06:23:32;0.30;94.20
47576;DHT22;33304;52.456;13.328;2022-11-20T06:26:02;0.30;92.10
47576;DHT22;33304;52.456;13.328;2022-11-20T06:28:29;0.10;90.30
47576;DHT22;33304;52.456;13.328;2022-11-20T06:30:57;0.10;91.30
47576;DHT22;33304;52.456;13.328;2022-11-20T06:33:24;0.00;91.10
47576;DHT22;33304;52.456;13.328;2022-11-20T06:35:51;0.10;91.60
47576;DHT22;33304;52.456;13.328;2022-11-20T06:38:20;0.00;92.10
47576;DHT22;33304;52.456;13.328;2022-11-20T06:40:47;0.10;91.60
47576;DHT22;33304;52.456;13.328;2022-11-20T06:43:14;0.10;91.10
47576;DHT22;33304;52.456;13.328;2022-11-20T06:45:41;0.00;90.90
47576;DHT22;33304;52.456;13.328;2022-11-20T06:48:09;0.20;91.60
47576;DHT22;33304;52.456;13.328;2022-11-20T06:50:37;0.00;91.40
47576;DHT22;33304;52.456;13.328;2022-11-20T06:53:04;0.10;91.90
47576;DHT22;33304;52.456;13.328;2022-11-20T06:55:33;0.20;90.30
47576;DHT22;33304;52.456;13.328;2022-11-20T06:58:00;0.20;89.50
47576;DHT22;33304;52.456;13.328;2022-11-20T07:00:27;0.20;87.10
47576;DHT22;33304;52.456;13.328;2022-11-20T07:02:54;0.40;87.00
47576;DHT22;33304;52.456;13.328;2022-11-20T07:05:21;0.20;78.80
47576;DHT22;33304;52.456;13.328;2022-11-20T07:07:49;0.30;81.00
47576;DHT22;33304;52.456;13.328;2022-11-20T07:10:16;0.20;81.50
47576;DHT22;33304;52.456;13.328;2022-11-20T07:12:49;0.10;80.70
47576;DHT22;33304;52.456;13.328;2022-11-20T07:15:16;0.20;83.80
47576;DHT22;33304;52.456;13.328;2022-11-20T07:17:43;0.10;79.70
47576;DHT22;33304;52.456;13.328;2022-11-20T07:20:11;0.00;83.00
47576;DHT22;33304;52.456;13.328;2022-11-20T07:22:38;0.10;79.20
47576;DHT22;33304;52.456;13.328;2022-11-20T07:25:06;0.00;81.70
47576;DHT22;33304;52.456;13.328;2022-11-20T07:27:33;0.10;83.10
47576;DHT22;33304;52.456;13.328;2022-11-20T07:30:02;0.10;78.90
47576;DHT22;33304;52.456;13.328;2022-11-20T07:32:30;0.00;78.60
47576;DHT22;33304;52.456;13.328;2022-11-20T07:34:57;0.00;80.20
47576;DHT22;33304;52.456;13.328;2022-11-20T07:37:24;-0.20;79.20
47576;DHT22;33304;52.456;13.328;2022-11-20T07:39:51;-0.10;81.70
47576;DHT22;33304;52.456;13.328;2022-11-20T07:42:18;0.00;81.80
47576;DHT22;33304;52.456;13.328;2022-11-20T07:44:45;0.10;82.20
47576;DHT22;33304;52.456;13.328;2022-11-20T07:47:13;0.20;77.60
47576;DHT22;33304;52.456;13.328;2022-11-20T07:49:41;0.20;71.10
47576;DHT22;33304;52.456;13.328;2022-11-20T07:52:08;0.10;70.80
47576;DHT22;33304;52.456;13.328;2022-11-20T07:54:35;0.20;69.50
47576;DHT22;33304;52.456;13.328;2022-11-20T07:57:02;0.00;68.40
47576;DHT22;33304;52.456;13.328;2022-11-20T07:59:29;0.00;69.60
47576;DHT22;33304;52.456;13.328;2022-11-20T08:01:56;0.10;70.50
47576;DHT22;33304;52.456;13.328;2022-11-20T08:04:25;0.00;68.40
47576;DHT22;33304;52.456;13.328;2022-11-20T08:06:52;0.00;68.40
47576;DHT22;33304;52.456;13.328;2022-11-20T08:09:19;0.00;70.80
47576;DHT22;33304;52.456;13.328;2022-11-20T08:11:46;0.20;69.70
47576;DHT22;33304;52.456;13.328;2022-11-20T08:14:31;0.30;68.60
47576;DHT22;33304;52.456;13.328;2022-11-20T08:16:58;0.30;68.60
47576;DHT22;33304;52.456;13.328;2022-11-20T08:19:26;0.10;68.40
47576;DHT22;33304;52.456;13.328;2022-11-20T08:21:55;0.20;68.50
47576;DHT22;33304;52.456;13.328;2022-11-20T08:24:22;0.20;70.40
47576;DHT22;33304;52.456;13.328;2022-11-20T08:26:49;0.40;68.70
47576;DHT22;33304;52.456;13.328;2022-11-20T08:29:16;0.30;68.70
47576;DHT22;33304;52.456;13.328;2022-11-20T08:31:43;0.40;70.40
47576;DHT22;33304;52.456;13.328;2022-11-20T08:34:10;0.50;68.00
47576;DHT22;33304;52.456;13.328;2022-11-20T08:36:39;0.40;68.70
47576;DHT22;33304;52.456;13.328;2022-11-20T08:39:06;0.40;67.80
47576;DHT22;33304;52.456;13.328;2022-11-20T08:41:33;0.30;68.60
47576;DHT22;33304;52.456;13.328;2022-11-20T08:44:02;0.30;68.70
47576;DHT22;33304;52.456;13.328;2022-11-20T08:46:32;0.30;69.60
47576;DHT22;33304;52.456;13.328;2022-11-20T08:49:00;0.40;69.00
47576;DHT22;33304;52.456;13.328;2022-11-20T08:51:27;0.50;70.00
47576;DHT22;33304;52.456;13.328;2022-11-20T08:53:56;0.60;67.30
47576;DHT22;33304;52.456;13.328;2022-11-20T08:56:23;0.40;65.30
47576;DHT22;33304;52.456;13.328;2022-11-20T08:58:50;0.40;67.20
47576;DHT22;33304;52.456;13.328;2022-11-20T09:01:18;0.50;68.00
47576;DHT22;33304;52.456;13.328;2022-11-20T09:03:45;0.50;67.20
47576;DHT22;33304;52.456;13.328;2022-11-20T09:06:13;0.40;65.00
47576;DHT22;33304;52.456;13.328;2022-11-20T09:08:41;0.30;68.10
47576;DHT22;33304;52.456;13.328;2022-11-20T09:11:09;0.40;68.70
47576;DHT22;33304;52.456;13.328;2022-11-20T09:13:36;0.50;68.80
47576;DHT22;33304;52.456;13.328;2022-11-20T09:16:06;0.60;67.00
47576;DHT22;33304;52.456;13.328;2022-11-20T09:18:34;0.60;65.20
47576;DHT22;33304;52.456;13.328;2022-11-20T09:21:05;0.50;63.50
47576;DHT22;33304;52.456;13.328;2022-11-20T09:23:35;0.50;66.30
47576;DHT22;33304;52.456;13.328;2022-11-20T09:26:03;0.40;65.10
47576;DHT22;33304;52.456;13.328;2022-11-20T09:28:31;0.50;67.00
47576;DHT22;33304;52.456;13.328;2022-11-20T09:30:59;0.60;63.70
47576;DHT22;33304;52.456;13.328;2022-11-20T09:33:26;0.50;63.50
47576;DHT22;33304;52.456;13.328;2022-11-20T09:35:53;0.50;65.20
47576;DHT22;33304;52.456;13.328;2022-11-20T09:38:20;0.70;67.10
47576;DHT22;33304;52.456;13.328;2022-11-20T09:40:52;0.50;62.10
47576;DHT22;33304;52.456;13.328;2022-11-20T09:43:32;0.50;63.00
47576;DHT22;33304;52.456;13.328;2022-11-20T09:46:07;0.50;59.50
47576;DHT22;33304;52.456;13.328;2022-11-20T09:48:55;0.40;60.70
47576;DHT22;33304;52.456;13.328;2022-11-20T09:51:34;0.40;59.00
47576;DHT22;33304;52.456;13.328;2022-11-20T09:54:12;0.40;60.60
47576;DHT22;33304;52.456;13.328;2022-11-20T09:56:42;0.40;58.60
47576;DHT22;33304;52.456;13.328;2022-11-20T09:59:21;0.50;59.10
47576;DHT22;33304;52.456;13.328;2022-11-20T10:01:49;0.50;58.20
47576;DHT22;33304;52.456;13.328;2022-11-20T10:04:18;0.60;58.20
47576;DHT22;33304;52.456;13.328;2022-11-20T10:06:50;0.60;57.70
47576;DHT22;33304;52.456;13.328;2022-11-20T10:09:25;0.50;57.30
47576;DHT22;33304;52.456;13.328;2022-11-20T10:12:02;0.60;58.20
47576;DHT22;33304;52.456;13.328;2022-11-20T10:14:43;0.70;58.30
47576;DHT22;33304;52.456;13.328;2022-11-20T10:17:19;0.80;58.40
47576;DHT22;33304;52.456;13.328;2022-11-20T10:20:01;0.90;55.80
47576;DHT22;33304;52.456;13.328;2022-11-20T10:22:40;0.90;53.80
47576;DHT22;33304;52.456;13.328;2022-11-20T10:25:14;0.80;53.10
47576;DHT22;33304;52.456;13.328;2022-11-20T10:27:57;0.70;54.80
47576;DHT22;33304;52.456;13.328;2022-11-20T10:30:30;0.70;55.70
47576;DHT22;33304;52.456;13.328;2022-11-20T10:33:03;0.80;56.70
47576;DHT22;33304;52.456;13.328;2022-11-20T10:35:35;1.00;55.20
47576;DHT22;33304;52.456;13.328;2022-11-20T10:38:09;0.90;54.70
47576;DHT22;33304;52.456;13.328;2022-11-20T10:40:42;0.90;57.30
47576;DHT22;33304;52.456;13.328;2022-11-20T10:43:14;0.90;56.80
47576;DHT22;33304;52.456;13.328;2022-11-20T10:45:52;0.70;56.70
47576;DHT22;33304;52.456;13.328;2022-11-20T10:48:23;0.60;58.20
47576;DHT22;33304;52.456;13.328;2022-11-20T10:51:08;0.60;58.20
47576;DHT22;33304;52.456;13.328;2022-11-20T10:53:50;0.60;58.40
47576;DHT22;33304;52.456;13.328;2022-11-20T10:56:24;0.70;58.30
47576;DHT22;33304;52.456;13.328;2022-11-20T10:59:04;0.80;58.90
47576;DHT22;33304;52.456;13.328;2022-11-20T11:01:41;0.80;58.40
47576;DHT22;33304;52.456;13.328;2022-11-20T11:04:23;1.10;58.20
47576;DHT22;33304;52.456;13.328;2022-11-20T11:06:56;1.20;57.00
47576;DHT22;33304;52.456;13.328;2022-11-20T11:09:34;1.20;55.50
47576;DHT22;33304;52.456;13.328;2022-11-20T11:12:06;1.10;55.40
47576;DHT22;33304;52.456;13.328;2022-11-20T11:14:43;1.00;55.40
47576;DHT22;33304;52.456;13.328;2022-11-20T11:17:25;1.00;57.50
47576;DHT22;33304;52.456;13.328;2022-11-20T11:20:04;1.20;55.90
47576;DHT22;33304;52.456;13.328;2022-11-20T11:22:33;1.60;53.90
47576;DHT22;33304;52.456;13.328;2022-11-20T11:25:01;2.00;45.70
47576;DHT22;33304;52.456;13.328;2022-11-20T11:27:28;1.80;46.70
47576;DHT22;33304;52.456;13.328;2022-11-20T11:30:03;1.80;44.70
47576;DHT22;33304;52.456;13.328;2022-11-20T11:32:39;1.90;43.90
47576;DHT22;33304;52.456;13.328;2022-11-20T11:35:19;1.90;42.20
47576;DHT22;33304;52.456;13.328;2022-11-20T11:37:46;1.90;43.00
47576;DHT22;33304;52.456;13.328;2022-11-20T11:40:15;1.80;44.60
47576;DHT22;33304;52.456;13.328;2022-11-20T11:42:46;1.80;44.00
47576;DHT22;33304;52.456;13.328;2022-11-20T11:45:15;1.90;43.00
47576;DHT22;33304;52.456;13.328;2022-11-20T11:47:46;1.90;44.80
47576;DHT22;33304;52.456;13.328;2022-11-20T11:50:16;2.00;43.20
47576;DHT22;33304;52.456;13.328;2022-11-20T11:52:48;1.90;43.90
47576;DHT22;33304;52.456;13.328;2022-11-20T11:55:22;1.90;44.80
47576;DHT22;33304;52.456;13.328;2022-11-20T11:57:57;2.20;44.20
47576;DHT22;33304;52.456;13.328;2022-11-20T12:00:28;2.30;43.30
47576;DHT22;33304;52.456;13.328;2022-11-20T12:03:05;2.10;41.80
47576;DHT22;33304;52.456;13.328;2022-11-20T12:05:40;2.00;42.50
47576;DHT22;33304;52.456;13.328;2022-11-20T12:08:14;1.90;44.00
47576;DHT22;33304;52.456;13.328;2022-11-20T12:10:46;2.10;42.40
47576;DHT22;33304;52.456;13.328;2022-11-20T12:13:23;2.20;41.60
47576;DHT22;33304;52.456;13.328;2022-11-20T12:15:53;2.20;43.90
47576;DHT22;33304;52.456;13.328;2022-11-20T12:18:22;2.20;41.90
47576;DHT22;33304;52.456;13.328;2022-11-20T12:21:00;2.30;43.90
47576;DHT22;33304;52.456;13.328;2022-11-20T12:23:36;2.30;42.60
47576;DHT22;33304;52.456;13.328;2022-11-20T12:26:19;2.30;42.80
47576;DHT22;33304;52.456;13.328;2022-11-20T12:29:01;2.40;41.60
47576;DHT22;33304;52.456;13.328;2022-11-20T12:31:42;2.30;38.90
47576;DHT22;33304;52.456;13.328;2022-11-20T12:34:24;2.30;39.60
47576;DHT22;33304;52.456;13.328;2022-11-20T12:36:59;2.30;40.80
47576;DHT22;33304;52.456;13.328;2022-11-20T12:39:34;2.50;41.60
47576;DHT22;33304;52.456;13.328;2022-11-20T12:42:31;2.50;39.40
47576;DHT22;33304;52.456;13.328;2022-11-20T12:48:36;2.30;39.60
47576;DHT22;33304;52.456;13.328;2022-11-20T12:51:36;2.40;43.40
47576;DHT22;33304;52.456;13.328;2022-11-20T12:54:37;2.40;41.50
47576;DHT22;33304;52.456;13.328;2022-11-20T12:57:09;2.40;41.00
47576;DHT22;33304;52.456;13.328;2022-11-20T12:59:54;2.20;41.50
47576;DHT22;33304;52.456;13.328;2022-11-20T13:02:26;2.10;42.70
47576;DHT22;33304;52.456;13.328;2022-11-20T13:05:13;2.10;43.40
47576;DHT22;33304;52.456;13.328;2022-11-20T13:07:46;2.10;44.60
47576;DHT22;33304;52.456;13.328;2022-11-20T13:10:19;2.20;44.10
47576;DHT22;33304;52.456;13.328;2022-11-20T13:12:50;2.30;44.50
47576;DHT22;33304;52.456;13.328;2022-11-20T13:15:33;2.30;44.50
47576;DHT22;33304;52.456;13.328;2022-11-20T13:18:04;2.30;45.10
47576;DHT22;33304;52.456;13.328;2022-11-20T13:20:33;2.20;46.70
47576;DHT22;33304;52.456;13.328;2022-11-20T13:23:02;2.20;45.90
47576;DHT22;33304;52.456;13.328;2022-11-20T13:25:30;2.10;46.10
47576;DHT22;33304;52.456;13.328;2022-11-20T13:27:59;2.00;48.60
47576;DHT22;33304;52.456;13.328;2022-11-20T13:30:28;2.00;48.00
47576;DHT22;33304;52.456;13.328;2022-11-20T13:32:56;2.00;48.60
47576;DHT22;33304;52.456;13.328;2022-11-20T13:35:28;1.90;48.50
47576;DHT22;33304;52.456;13.328;2022-11-20T13:38:05;1.90;49.40
47576;DHT22;33304;52.456;13.328;2022-11-20T13:40:35;1.90;49.90
47576;DHT22;33304;52.456;13.328;2022-11-20T13:43:10;1.80;51.10
47576;DHT22;33304;52.456;13.328;2022-11-20T13:45:41;1.80;53.70
47576;DHT22;33304;52.456;13.328;2022-11-20T13:48:20;1.80;55.20
47576;DHT22;33304;52.456;13.328;2022-11-20T13:50:55;1.80;54.30
47576;DHT22;33304;52.456;13.328;2022-11-20T13:53:36;1.80;55.30
47576;DHT22;33304;52.456;13.328;2022-11-20T13:56:14;1.90;55.80
47576;DHT22;33304;52.456;13.328;2022-11-20T13:58:51;1.80;56.80
47576;DHT22;33304;52.456;13.328;2022-11-20T14:01:23;1.90;59.30
47576;DHT22;33304;52.456;13.328;2022-11-20T14:03:51;1.80;59.30
47576;DHT22;33304;52.456;13.328;2022-11-20T14:06:25;1.90;59.30
47576;DHT22;33304;52.456;13.328;2022-11-20T14:08:55;1.90;60.00
47576;DHT22;33304;52.456;13.328;2022-11-20T14:11:24;1.90;59.30
47576;DHT22;33304;52.456;13.328;2022-11-20T14:13:56;1.70;60.90
47576;DHT22;33304;52.456;13.328;2022-11-20T14:16:26;1.60;63.10
47576;DHT22;33304;52.456;13.328;2022-11-20T14:18:54;1.70;65.80
47576;DHT22;33304;52.456;13.328;2022-11-20T14:21:27;1.80;64.60
47576;DHT22;33304;52.456;13.328;2022-11-20T14:24:04;1.80;63.70
47576;DHT22;33304;52.456;13.328;2022-11-20T14:26:32;1.80;64.00
47576;DHT22;33304;52.456;13.328;2022-11-20T14:29:01;1.80;63.40
47576;DHT22;33304;52.456;13.328;2022-11-20T14:31:28;1.80;63.10
47576;DHT22;33304;52.456;13.328;2022-11-20T14:33:56;1.80;62.50
47576;DHT22;33304;52.456;13.328;2022-11-20T14:36:24;1.70;61.80
47576;DHT22;33304;52.456;13.328;2022-11-20T14:38:52;1.80;64.20
47576;DHT22;33304;52.456;13.328;2022-11-20T14:41:22;1.80;62.60
47576;DHT22;33304;52.456;13.328;2022-11-20T14:43:53;1.90;62.80
47576;DHT22;33304;52.456;13.328;2022-11-20T14:46:21;1.90;59.30
47576;DHT22;33304;52.456;13.328;2022-11-20T14:48:51;1.80;57.90
47576;DHT22;33304;52.456;13.328;2022-11-20T14:51:32;1.90;59.30
47576;DHT22;33304;52.456;13.328;2022-11-20T14:54:10;2.10;58.10
47576;DHT22;33304;52.456;13.328;2022-11-20T14:56:39;2.00;56.40
47576;DHT22;33304;52.456;13.328;2022-11-20T14:59:07;1.90;56.00
47576;DHT22;33304;52.456;13.328;2022-11-20T15:01:35;1.90;52.00
47576;DHT22;33304;52.456;13.328;2022-11-20T15:04:06;1.70;53.80
47576;DHT22;33304;52.456;13.328;2022-11-20T15:06:35;1.60;55.20
47576;DHT22;33304;52.456;13.328;2022-11-20T15:09:03;1.50;54.80
47576;DHT22;33304;52.456;13.328;2022-11-20T15:11:32;1.50;57.10
47576;DHT22;33304;52.456;13.328;2022-11-20T15:14:04;1.80;55.40
47576;DHT22;33304;52.456;13.328;2022-11-20T15:16:33;1.80;53.90
47576;DHT22;33304;52.456;13.328;2022-11-20T15:19:00;1.80;52.10
47576;DHT22;33304;52.456;13.328;2022-11-20T15:21:29;1.80;51.90
47576;DHT22;33304;52.456;13.328;2022-11-20T15:23:57;1.80;52.30
47576;DHT22;33304;52.456;13.328;2022-11-20T15:26:26;1.90;52.90
47576;DHT22;33304;52.456;13.328;2022-11-20T15:28:53;1.80;52.70
47576;DHT22;33304;52.456;13.328;2022-11-20T15:31:23;1.90;53.60
47576;DHT22;33304;52.456;13.328;2022-11-20T15:33:50;1.90;50.70
47576;DHT22;33304;52.456;13.328;2022-11-20T15:36:18;1.80;52.20
47576;DHT22;33304;52.456;13.328;2022-11-20T15:38:45;1.80;51.30
47576;DHT22;33304;52.456;13.328;2022-11-20T15:41:12;1.80;50.90
47576;DHT22;33304;52.456;13.328;2022-11-20T15:43:39;1.60;51.90
47576;DHT22;33304;52.456;13.328;2022-11-20T15:46:10;1.50;52.40
47576;DHT22;33304;52.456;13.328;2022-11-20T15:48:42;1.50;53.20
47576;DHT22;33304;52.456;13.328;2022-11-20T15:51:19;1.70;53.80
47576;DHT22;33304;52.456;13.328;2022-11-20T15:53:48;1.60;51.90